Time;durP1;ratioP1;P1;durP2;ratioP2;P2;SDS_P1;SDS_P2;PMS_P1;PMS_P2;Temp;Humidity;BMP_temperature;BMP_pressure;BME280_temperature;BME280_humidity;BME280_pressure;Samples;Min_cycle;Max_cycle;Signal;HPM_P1;HPM_P2
2022/01/07 00:01:17;;;;;;;7.18;4.55;;;;;;;2.40;67.98;95505.19;5008097;28;20057;-79
2022/01/07 00:03:43;;;;;;;5.20;4.00;;;;;;;2.55;67.39;95503.94;5023454;28;20029;-77
2022/01/07 00:06:08;;;;;;;6.25;4.30;;;;;;;2.52;67.57;95498.88;5026870;28;20091;-79
2022/01/07 00:08:33;;;;;;;5.57;4.18;;;;;;;2.52;67.93;95498.03;5024279;28;20288;-78
2022/01/07 00:10:59;;;;;;;6.53;4.57;;;;;;;2.51;67.76;95501.66;5027109;28;20472;-77
2022/01/07 00:13:24;;;;;;;4.60;3.72;;;;;;;2.61;67.46;95499.09;5026024;28;20026;-78
2022/01/07 00:15:52;;;;;;;6.25;4.50;;;;;;;2.64;67.08;95509.44;5025959;28;20029;-79
2022/01/07 00:18:17;;;;;;;5.45;4.40;;;;;;;2.62;66.70;95514.00;5027009;28;20021;-80
2022/01/07 00:20:43;;;;;;;6.00;4.57;;;;;;;2.55;67.53;95518.97;5006843;28;20045;-77
2022/01/07 00:23:08;;;;;;;5.45;4.22;;;;;;;2.48;67.58;95518.66;5009484;28;20041;-76
2022/01/07 00:25:34;;;;;;;5.03;4.20;;;;;;;2.39;68.10;95514.91;5024562;28;20036;-79
2022/01/07 00:27:59;;;;;;;6.53;4.90;;;;;;;2.44;68.07;95522.50;5026983;28;20065;-77
2022/01/07 00:30:25;;;;;;;5.13;3.85;;;;;;;2.45;68.00;95508.31;5025093;28;20485;-82
2022/01/07 00:32:51;;;;;;;7.03;4.32;;;;;;;2.47;67.49;95506.34;5008689;28;20580;-78
2022/01/07 00:35:17;;;;;;;6.15;4.50;;;;;;;2.47;67.80;95511.66;5026484;28;20029;-79
2022/01/07 00:37:43;;;;;;;6.75;4.50;;;;;;;2.49;67.74;95515.03;5007403;28;20036;-79
2022/01/07 00:40:15;;;;;;;6.13;4.38;;;;;;;2.42;67.65;95506.72;5026914;28;20101;-77
2022/01/07 00:42:40;;;;;;;6.38;4.78;;;;;;;2.47;67.79;95511.66;5025434;28;20397;-77
2022/01/07 00:45:06;;;;;;;6.85;4.72;;;;;;;2.56;67.01;95507.44;5012867;28;20527;-78
2022/01/07 00:47:31;;;;;;;5.47;4.50;;;;;;;2.62;67.17;95508.72;5028803;28;20687;-77
2022/01/07 00:49:58;;;;;;;6.95;4.25;;;;;;;2.54;67.07;95515.50;5012619;28;20121;-79
2022/01/07 00:52:24;;;;;;;7.28;4.47;;;;;;;2.46;67.73;95526.72;5012201;28;20036;-78
2022/01/07 00:54:49;;;;;;;6.80;4.68;;;;;;;2.46;67.56;95520.56;5028961;28;20558;-77
2022/01/07 00:57:14;;;;;;;6.72;4.80;;;;;;;2.47;67.68;95533.69;4996387;28;20458;-79
2022/01/07 00:59:40;;;;;;;6.13;4.63;;;;;;;2.47;67.81;95541.63;5010265;28;20040;-79
2022/01/07 01:02:05;;;;;;;6.32;4.22;;;;;;;2.50;67.43;95540.53;5030107;28;20064;-78
2022/01/07 01:04:31;;;;;;;6.63;4.70;;;;;;;2.49;67.21;95535.34;5028099;28;20493;-77
2022/01/07 01:06:56;;;;;;;5.68;4.43;;;;;;;2.39;67.87;95525.50;5029926;28;20025;-78
2022/01/07 01:09:22;;;;;;;5.35;4.10;;;;;;;2.33;68.01;95529.50;5028154;28;20052;-79
2022/01/07 01:11:47;;;;;;;6.43;4.72;;;;;;;2.34;68.19;95541.78;5029350;28;20030;-78
2022/01/07 01:14:13;;;;;;;6.80;4.55;;;;;;;2.37;67.87;95535.38;5029734;28;20036;-78
2022/01/07 01:16:38;;;;;;;7.53;5.00;;;;;;;2.17;68.63;95536.97;5010245;28;20048;-79
2022/01/07 01:19:05;;;;;;;6.70;4.47;;;;;;;2.28;67.92;95536.97;5012284;28;20416;-79
2022/01/07 01:21:30;;;;;;;6.72;4.55;;;;;;;2.19;68.00;95545.66;5027486;28;20131;-77
2022/01/07 01:23:56;;;;;;;6.78;4.68;;;;;;;2.17;68.10;95540.47;5011923;28;20037;-77
2022/01/07 01:26:21;;;;;;;6.82;4.57;;;;;;;2.15;68.21;95546.84;5028116;28;20021;-77
2022/01/07 01:28:47;;;;;;;7.18;5.15;;;;;;;2.14;68.80;95538.06;5011767;28;20471;-77
2022/01/07 01:31:17;;;;;;;6.40;4.47;;;;;;;2.18;68.24;95533.38;5011115;28;20098;-78
2022/01/07 01:33:43;;;;;;;6.22;4.07;;;;;;;2.21;68.54;95538.41;5027304;28;20026;-79
2022/01/07 01:36:09;;;;;;;6.68;4.07;;;;;;;2.28;67.76;95538.75;5029661;28;20557;-79
2022/01/07 01:38:35;;;;;;;6.22;4.32;;;;;;;2.14;68.55;95545.16;5027418;28;20026;-81
2022/01/07 01:41:00;;;;;;;5.15;3.83;;;;;;;2.15;68.18;95533.59;5011574;28;20029;-81
2022/01/07 01:43:26;;;;;;;5.85;4.50;;;;;;;2.19;67.95;95535.06;5027413;28;20131;-78
2022/01/07 01:45:51;;;;;;;5.85;3.90;;;;;;;2.14;68.18;95538.06;5029377;28;20018;-77
2022/01/07 01:48:17;;;;;;;5.70;4.10;;;;;;;2.18;67.91;95544.81;5010194;28;20029;-78
2022/01/07 01:50:42;;;;;;;5.82;4.38;;;;;;;2.12;68.75;95536.50;5028917;28;20032;-78
2022/01/07 01:53:07;;;;;;;6.10;4.18;;;;;;;2.15;68.30;95545.03;5028604;28;20388;-79
2022/01/07 01:55:33;;;;;;;5.43;4.05;;;;;;;2.15;68.65;95546.84;5009607;28;20516;-77
2022/01/07 01:57:58;;;;;;;4.88;3.78;;;;;;;2.14;68.69;95548.66;5011398;28;20021;-77
2022/01/07 02:00:25;;;;;;;5.57;4.25;;;;;;;2.17;68.58;95543.13;5027054;28;20083;-76
2022/01/07 02:02:50;;;;;;;4.90;4.03;;;;;;;2.19;68.17;95535.06;5011434;28;20392;-79
2022/01/07 02:05:15;;;;;;;5.38;3.63;;;;;;;2.24;68.07;95540.00;4993094;28;20538;-78
2022/01/07 02:07:41;;;;;;;5.68;4.15;;;;;;;2.29;67.72;95543.94;5028952;28;20029;-78
2022/01/07 02:10:09;;;;;;;5.38;3.70;;;;;;;2.25;67.59;95546.94;5010140;28;20029;-78
2022/01/07 02:12:34;;;;;;;5.55;4.20;;;;;;;2.20;68.17;95542.03;4994026;28;20036;-79
2022/01/07 02:15:00;;;;;;;5.15;3.55;;;;;;;2.16;68.88;95543.25;4994581;28;20041;-78
2022/01/07 02:17:26;;;;;;;6.03;4.13;;;;;;;2.14;68.63;95546.03;5026936;28;20025;-79
2022/01/07 02:19:52;;;;;;;5.72;3.80;;;;;;;2.04;68.53;95545.91;5028787;28;20043;-78
2022/01/07 02:22:17;;;;;;;5.25;3.80;;;;;;;2.01;68.62;95554.09;5008596;28;20050;-79
2022/01/07 02:24:44;;;;;;;6.15;3.70;;;;;;;2.03;69.02;95552.13;5010919;28;20026;-78
2022/01/07 02:27:11;;;;;;;7.22;3.65;;;;;;;2.04;68.47;95551.19;5027187;28;20033;-78
2022/01/07 02:29:36;;;;;;;4.93;3.50;;;;;;;2.04;68.57;95559.13;5009499;28;20029;-78
2022/01/07 02:32:02;;;;;;;5.28;3.85;;;;;;;2.00;68.54;95547.09;5010300;28;20462;-78
2022/01/07 02:34:27;;;;;;;5.18;3.60;;;;;;;1.97;69.00;95555.28;5009142;28;20416;-78
2022/01/07 02:36:53;;;;;;;5.35;4.05;;;;;;;1.93;69.32;95561.78;5028478;28;20030;-79
2022/01/07 02:39:18;;;;;;;4.78;4.05;;;;;;;1.91;68.94;95551.31;5026056;28;20033;-78
2022/01/07 02:41:44;;;;;;;5.53;3.80;;;;;;;1.95;68.87;95555.38;5009230;28;20026;-78
2022/01/07 02:44:09;;;;;;;6.82;4.25;;;;;;;1.97;68.67;95558.75;5008368;28;20034;-77
2022/01/07 02:46:35;;;;;;;5.53;4.28;;;;;;;1.92;69.43;95574.16;5008883;28;20033;-77
2022/01/07 02:49:08;;;;;;;6.22;3.95;;;;;;;1.91;69.45;95579.56;5027133;28;20030;-79
2022/01/07 02:51:33;;;;;;;7.15;4.50;;;;;;;1.92;69.60;95575.97;5027061;28;20028;-77
2022/01/07 02:53:58;;;;;;;6.68;3.83;;;;;;;1.89;68.82;95571.75;5028540;28;20033;-77
2022/01/07 02:56:24;;;;;;;4.57;3.80;;;;;;;1.87;69.36;95578.13;5025898;28;20479;-79
2022/01/07 02:58:49;;;;;;;6.05;3.78;;;;;;;1.91;69.08;95576.91;5028083;28;20469;-78
2022/01/07 03:01:15;;;;;;;6.00;4.15;;;;;;;1.89;68.45;95582.31;5025585;28;20052;-79
2022/01/07 03:03:40;;;;;;;6.00;3.65;;;;;;;1.87;69.18;95578.13;5028094;28;20034;-78
2022/01/07 03:06:06;;;;;;;6.88;3.88;;;;;;;1.90;69.08;95580.53;5025955;28;20530;-77
2022/01/07 03:08:31;;;;;;;5.68;3.90;;;;;;;1.93;68.97;95572.34;5009797;28;20109;-77
2022/01/07 03:10:56;;;;;;;7.68;4.15;;;;;;;1.87;69.50;95571.00;5027567;28;20033;-78
2022/01/07 03:13:22;;;;;;;5.95;4.00;;;;;;;1.88;69.18;95574.50;5026009;28;20448;-77
2022/01/07 03:15:47;;;;;;;6.28;4.28;;;;;;;1.93;69.06;95581.16;5028155;28;20022;-78
2022/01/07 03:18:13;;;;;;;5.20;3.85;;;;;;;1.94;69.74;95589.91;5025547;28;20017;-78
2022/01/07 03:20:38;;;;;;;5.93;4.05;;;;;;;1.95;69.35;95581.84;5027441;28;20053;-79
2022/01/07 03:23:08;;;;;;;6.78;4.05;;;;;;;1.99;69.13;95579.81;5007880;28;20030;-78
2022/01/07 03:25:33;;;;;;;6.55;4.43;;;;;;;1.99;69.08;95585.09;5027569;28;20363;-77
2022/01/07 03:27:59;;;;;;;6.18;4.32;;;;;;;2.00;68.77;95591.25;5026938;28;20385;-78
2022/01/07 03:30:24;;;;;;;5.43;4.10;;;;;;;2.03;68.80;95589.19;5026671;28;20021;-79
2022/01/07 03:32:49;;;;;;;6.18;4.32;;;;;;;2.00;69.64;95594.72;5027580;28;20032;-79
2022/01/07 03:35:16;;;;;;;6.45;4.30;;;;;;;1.87;69.46;95592.19;5025343;28;20034;-79
2022/01/07 03:37:42;;;;;;;6.05;4.50;;;;;;;1.92;69.30;95592.66;5027532;28;20468;-78
2022/01/07 03:40:08;;;;;;;6.28;4.13;;;;;;;2.01;69.01;95595.56;4991890;28;20074;-80
2022/01/07 03:42:34;;;;;;;8.02;4.95;;;;;;;1.98;68.89;95596.66;5027251;28;20041;-78
2022/01/07 03:44:59;;;;;;;12.38;6.50;;;;;;;2.05;68.78;95597.84;5008053;28;20036;-79
2022/01/07 03:47:26;;;;;;;11.13;6.45;;;;;;;2.07;69.44;95595.94;5009083;28;20433;-79
2022/01/07 03:49:51;;;;;;;7.22;4.82;;;;;;;2.02;69.34;95613.09;5009246;28;20029;-80
2022/01/07 03:52:18;;;;;;;8.90;4.93;;;;;;;2.10;68.59;95606.28;5026020;28;20075;-79
2022/01/07 03:54:44;;;;;;;6.90;4.53;;;;;;;2.04;69.08;95611.19;5027299;28;20037;-80
2022/01/07 03:57:09;;;;;;;6.93;4.97;;;;;;;2.01;69.09;95612.28;5026115;28;20485;-79
2022/01/07 03:59:35;;;;;;;8.43;5.03;;;;;;;2.18;68.46;95615.41;5027065;28;20041;-79
2022/01/07 04:02:00;;;;;;;8.35;4.78;;;;;;;2.19;68.05;95609.97;5024824;28;20032;-80
2022/01/07 04:04:26;;;;;;;8.35;5.65;;;;;;;2.32;68.28;95604.56;5026867;28;20021;-79
2022/01/07 04:06:51;;;;;;;9.07;5.47;;;;;;;2.17;68.79;95616.38;5026033;28;20026;-79
2022/01/07 04:09:16;;;;;;;8.48;5.47;;;;;;;2.17;69.01;95621.66;5026367;28;20030;-80
2022/01/07 04:11:42;;;;;;;7.43;5.18;;;;;;;2.14;68.37;95621.91;5027054;28;20033;-80
2022/01/07 04:14:07;;;;;;;10.00;5.78;;;;;;;2.18;68.68;95623.34;5025248;28;20045;-81
2022/01/07 04:16:33;;;;;;;7.75;5.03;;;;;;;2.19;68.72;95630.34;5027666;28;20407;-79
2022/01/07 04:18:58;;;;;;;7.95;5.32;;;;;;;2.24;68.44;95624.69;4994874;28;20500;-80
2022/01/07 04:21:23;;;;;;;6.43;4.60;;;;;;;2.28;68.25;95628.75;5030816;28;20432;-80
2022/01/07 04:23:49;;;;;;;7.50;5.00;;;;;;;2.10;69.42;95635.38;5010793;28;20048;-79
2022/01/07 04:26:14;;;;;;;8.48;5.35;;;;;;;2.12;68.83;95623.81;5013179;28;20535;-80
2022/01/07 04:28:40;;;;;;;6.97;4.80;;;;;;;2.14;68.86;95640.44;5029993;28;20032;-80
2022/01/07 04:31:05;;;;;;;8.05;4.85;;;;;;;2.15;69.06;95635.03;5029583;28;20036;-78
2022/01/07 04:33:33;;;;;;;7.60;5.30;;;;;;;1.87;70.41;95638.97;5030606;28;20068;-79
2022/01/07 04:35:58;;;;;;;6.40;4.68;;;;;;;1.92;69.85;95627.06;5011209;28;20030;-79
2022/01/07 04:38:24;;;;;;;6.93;4.40;;;;;;;2.03;69.69;95630.69;5012998;28;20120;-79
2022/01/07 04:40:49;;;;;;;8.07;5.30;;;;;;;2.07;69.09;95637.41;5010494;28;20037;-80
2022/01/07 04:43:15;;;;;;;6.53;4.32;;;;;;;2.10;69.31;95638.03;5030651;28;20030;-78
2022/01/07 04:45:40;;;;;;;7.22;4.75;;;;;;;2.06;69.00;95636.56;5011347;28;20025;-79
2022/01/07 04:48:06;;;;;;;7.28;5.07;;;;;;;1.95;69.80;95645.34;5012200;28;20404;-80
2022/01/07 04:50:31;;;;;;;9.07;5.28;;;;;;;2.07;69.55;95651.50;5012708;28;20032;-80
2022/01/07 04:52:57;;;;;;;7.63;5.18;;;;;;;2.04;69.24;95651.75;5010659;28;20024;-79
2022/01/07 04:55:29;;;;;;;6.97;5.07;;;;;;;2.21;69.08;95654.84;5012934;28;20057;-79
2022/01/07 04:57:54;;;;;;;8.47;5.53;;;;;;;1.99;69.45;95648.59;5028187;28;20452;-79
2022/01/07 05:00:21;;;;;;;8.98;5.57;;;;;;;2.00;69.40;95654.75;5013332;28;20052;-79
2022/01/07 05:02:46;;;;;;;9.27;5.53;;;;;;;2.13;69.11;95668.69;5028155;28;20033;-79
2022/01/07 05:05:12;;;;;;;9.48;5.65;;;;;;;2.08;69.44;95665.56;5030174;28;20028;-78
2022/01/07 05:07:37;;;;;;;8.52;5.68;;;;;;;2.12;69.31;95668.81;5011682;28;20025;-79
2022/01/07 05:10:07;;;;;;;9.55;5.35;;;;;;;2.05;69.63;95665.78;5028756;28;20029;-78
2022/01/07 05:12:33;;;;;;;8.90;5.85;;;;;;;2.09;69.49;95665.47;5012368;28;20029;-79
2022/01/07 05:14:58;;;;;;;8.45;5.30;;;;;;;2.14;68.78;95665.09;5027780;28;20064;-78
2022/01/07 05:17:23;;;;;;;9.27;5.65;;;;;;;2.15;68.49;95666.78;5030065;28;20032;-78
2022/01/07 05:19:49;;;;;;;8.75;5.55;;;;;;;2.11;68.71;95668.00;5027992;28;20068;-80
2022/01/07 05:22:14;;;;;;;9.68;5.40;;;;;;;2.08;68.75;95666.41;5012197;28;20413;-81
2022/01/07 05:24:40;;;;;;;11.57;6.32;;;;;;;2.06;68.87;95670.13;5028425;28;20388;-80
2022/01/07 05:27:05;;;;;;;8.80;5.97;;;;;;;2.04;69.34;95672.91;5028385;28;20034;-80
2022/01/07 05:29:34;;;;;;;8.88;5.63;;;;;;;2.14;68.59;95673.03;5029285;28;20028;-81
2022/01/07 05:32:01;;;;;;;8.90;5.90;;;;;;;1.92;69.14;95681.78;5005385;28;20029;-79
2022/01/07 05:34:26;;;;;;;10.73;6.20;;;;;;;1.92;69.97;95687.91;5007468;28;20033;-81
2022/01/07 05:36:51;;;;;;;10.52;6.03;;;;;;;1.95;69.99;95686.84;5026892;28;20072;-80
2022/01/07 05:39:17;;;;;;;10.25;6.18;;;;;;;1.96;69.81;95686.72;5024831;28;20033;-81
2022/01/07 05:41:42;;;;;;;12.45;6.47;;;;;;;1.97;69.31;95690.19;5005563;28;20037;-81
2022/01/07 05:44:08;;;;;;;10.85;6.47;;;;;;;2.04;69.26;95691.44;5021669;28;20025;-80
2022/01/07 05:46:33;;;;;;;12.00;6.90;;;;;;;2.14;69.08;95683.63;5027213;28;20464;-80
2022/01/07 05:48:59;;;;;;;10.70;6.30;;;;;;;2.12;68.76;95697.91;5013130;28;20470;-80
2022/01/07 05:51:24;;;;;;;11.48;6.30;;;;;;;2.21;68.89;95691.91;5021625;28;20485;-83
2022/01/07 05:53:49;;;;;;;10.30;6.35;;;;;;;2.06;69.10;95694.78;5027380;28;20030;-81
2022/01/07 05:56:15;;;;;;;10.40;6.32;;;;;;;2.18;68.69;95681.56;5025538;28;20037;-81
2022/01/07 05:58:40;;;;;;;8.18;5.95;;;;;;;1.91;69.72;95685.38;5023894;28;20037;-82
2022/01/07 06:01:08;;;;;;;8.98;5.90;;;;;;;1.78;69.95;95696.88;5010138;28;20377;-81
2022/01/07 06:03:33;;;;;;;8.75;6.00;;;;;;;2.03;69.19;95684.44;5007134;28;20025;-81
2022/01/07 06:05:59;;;;;;;9.20;5.95;;;;;;;2.05;69.39;95690.44;5025346;28;20405;-81
2022/01/07 06:08:24;;;;;;;10.25;6.43;;;;;;;2.17;68.58;95690.47;5019843;28;20022;-81
2022/01/07 06:10:49;;;;;;;8.65;6.20;;;;;;;2.07;68.96;95693.84;5007509;28;20029;-80
2022/01/07 06:13:15;;;;;;;9.77;6.57;;;;;;;1.98;69.16;95695.38;5025393;28;20041;-82
2022/01/07 06:15:40;;;;;;;7.80;5.95;;;;;;;2.02;69.20;95693.34;5025067;28;20033;-81
2022/01/07 06:18:07;;;;;;;9.80;6.72;;;;;;;1.87;69.87;95695.34;5017254;28;20034;-82
2022/01/07 06:20:32;;;;;;;10.10;6.50;;;;;;;2.05;69.12;95697.53;5006044;28;20509;-81
2022/01/07 06:22:58;;;;;;;10.32;6.30;;;;;;;2.06;68.82;95693.94;5008168;28;20041;-80
2022/01/07 06:25:23;;;;;;;10.65;6.90;;;;;;;2.04;68.92;95702.00;5006254;28;20030;-80
2022/01/07 06:27:49;;;;;;;12.38;7.00;;;;;;;2.09;69.04;95702.50;5024932;28;20033;-80
2022/01/07 06:30:14;;;;;;;9.65;6.85;;;;;;;2.12;69.14;95708.50;5027278;28;20029;-80
2022/01/07 06:32:40;;;;;;;11.65;7.43;;;;;;;2.14;69.07;95710.09;5008347;28;20112;-80
2022/01/07 06:35:06;;;;;;;10.63;6.97;;;;;;;2.12;69.06;95719.09;5027485;28;20173;-81
2022/01/07 06:37:31;;;;;;;12.32;7.65;;;;;;;2.24;68.92;95722.59;5024137;28;20569;-80
2022/01/07 06:39:57;;;;;;;11.57;7.32;;;;;;;2.36;68.06;95713.72;5026971;28;20025;-79
2022/01/07 06:42:22;;;;;;;10.40;6.70;;;;;;;2.37;68.38;95718.03;5011655;28;20029;-80
2022/01/07 06:44:47;;;;;;;10.45;7.13;;;;;;;2.42;68.04;95725.66;5007702;28;20041;-79
2022/01/07 06:47:13;;;;;;;12.85;7.82;;;;;;;2.30;68.17;95725.63;5006216;28;20026;-80
2022/01/07 06:49:38;;;;;;;12.40;7.63;;;;;;;2.22;68.30;95728.84;5026757;28;20083;-82
2022/01/07 06:52:04;;;;;;;10.07;7.18;;;;;;;2.30;68.03;95732.72;5009758;28;20053;-81
2022/01/07 06:54:31;;;;;;;10.45;7.22;;;;;;;2.18;68.83;95729.19;5024725;28;20077;-81
2022/01/07 06:56:57;;;;;;;11.10;7.32;;;;;;;2.07;69.32;95727.38;5023561;28;20053;-82
2022/01/07 06:59:22;;;;;;;12.40;8.00;;;;;;;2.12;68.83;95727.03;4972880;28;20032;-80
2022/01/07 07:01:48;;;;;;;11.02;7.32;;;;;;;2.31;68.47;95729.94;5007349;28;20041;-80
2022/01/07 07:04:14;;;;;;;12.68;7.75;;;;;;;2.21;68.50;95734.25;5025220;28;20026;-81
2022/01/07 07:06:41;;;;;;;13.13;7.43;;;;;;;2.31;68.38;95732.59;5008875;28;20542;-80
2022/01/07 07:09:06;;;;;;;12.02;7.60;;;;;;;2.30;68.71;95733.56;5026896;28;20563;-78
2022/01/07 07:11:39;;;;;;;11.63;7.93;;;;;;;2.31;68.80;95743.19;5111003;27;1286304;-81
2022/01/07 07:14:05;;;;;;;12.60;7.80;;;;;;;2.33;68.21;95737.78;5114921;28;20782;-84
2022/01/07 07:16:30;;;;;;;10.77;7.63;;;;;;;2.42;67.73;95726.47;5108888;27;20086;-81
2022/01/07 07:18:56;;;;;;;13.88;8.18;;;;;;;2.52;67.51;95731.91;5120124;28;20025;-82
2022/01/07 07:21:21;;;;;;;10.55;7.80;;;;;;;2.50;67.29;95731.16;5123022;28;20027;-82
2022/01/07 07:23:46;;;;;;;14.02;8.13;;;;;;;2.58;67.26;95731.41;5123626;28;20029;-81
2022/01/07 07:26:12;;;;;;;12.30;7.75;;;;;;;2.62;66.98;95736.47;5122802;27;20047;-82
2022/01/07 07:28:38;;;;;;;13.55;8.80;;;;;;;2.64;66.86;95742.50;5124517;28;20031;-81
2022/01/07 07:31:06;;;;;;;13.68;8.15;;;;;;;2.58;67.00;95734.06;5122995;27;20031;-81
2022/01/07 07:34:06;;;;;;;11.73;8.23;;;;;;;2.67;67.13;95740.47;5123920;27;20015;-81
2022/01/07 07:36:30;;;;;;;12.25;8.07;;;;;;;2.72;66.68;95740.91;5124042;28;20420;-83
2022/01/07 07:39:06;;;;;;;12.60;7.57;;;;;;;2.86;66.30;95738.16;5123214;27;20030;-79
2022/01/07 07:41:32;;;;;;;13.82;8.05;;;;;;;2.82;66.65;95732.28;5124759;27;20445;-81
2022/01/07 07:43:58;;;;;;;14.32;8.10;;;;;;;2.91;66.23;95738.63;5121957;28;20548;-82
2022/01/07 07:46:24;;;;;;;15.77;9.20;;;;;;;2.90;66.52;95731.66;5124753;27;20027;-82
2022/01/07 07:48:51;;;;;;;21.85;10.80;;;;;;;2.93;66.12;95723.47;5124020;27;20083;-83
2022/01/07 07:51:16;;;;;;;19.95;10.52;;;;;;;2.92;66.16;95722.59;5123888;27;20039;-82
2022/01/07 07:53:42;;;;;;;20.98;11.18;;;;;;;2.95;66.38;95727.66;5123236;28;20426;-81
2022/01/07 07:56:08;;;;;;;16.83;10.38;;;;;;;2.96;66.19;95717.91;5123223;28;20405;-83
2022/01/07 07:58:34;;;;;;;13.35;9.30;;;;;;;3.01;66.28;95713.09;5125332;27;20023;-81
2022/01/07 08:01:00;;;;;;;16.70;8.95;;;;;;;3.00;65.40;95714.03;5121696;28;20024;-81
2022/01/07 08:03:25;;;;;;;15.68;8.65;;;;;;;3.08;65.73;95711.63;5103080;28;20032;-81
2022/01/07 08:05:51;;;;;;;15.13;9.50;;;;;;;3.10;66.03;95714.16;5102822;28;20035;-82
2022/01/07 08:08:16;;;;;;;15.77;9.48;;;;;;;3.25;65.46;95712.06;5103799;28;20020;-82
2022/01/07 08:10:49;;;;;;;18.23;9.90;;;;;;;3.37;65.19;95722.66;5103051;28;20040;-81
2022/01/07 08:15:58;;;;;;;16.15;9.23;;;;;;;3.45;64.48;95717.56;5102739;28;20101;-84
2022/01/07 08:18:30;;;;;;;14.23;9.60;;;;;;;3.54;63.93;95718.63;5102187;28;20536;-81
2022/01/07 08:20:59;;;;;;;15.63;9.57;;;;;;;3.54;64.09;95719.47;5102348;28;20051;-82
2022/01/07 08:23:25;;;;;;;15.00;9.52;;;;;;;3.59;63.60;95716.44;5087634;28;20024;-82
2022/01/07 08:25:50;;;;;;;14.55;9.48;;;;;;;3.81;63.22;95723.44;5088132;28;20047;-82
2022/01/07 08:28:16;;;;;;;16.23;9.35;;;;;;;4.00;62.97;95716.59;5071786;28;20028;-81
2022/01/07 08:36:10;;;;;;;14.00;8.68;;;;;;;4.32;61.06;95718.34;5087255;28;20086;-82
2022/01/07 08:38:36;;;;;;;13.68;8.40;;;;;;;4.44;60.71;95716.44;5089607;28;20020;-82
2022/01/07 08:41:02;;;;;;;14.45;8.93;;;;;;;4.44;60.81;95716.44;5089536;28;20043;-81
2022/01/07 08:43:27;;;;;;;15.38;9.65;;;;;;;4.57;60.28;95716.25;5087467;28;20505;-82
2022/01/07 08:45:52;;;;;;;12.13;8.43;;;;;;;4.76;60.08;95714.63;5089452;28;20031;-81
2022/01/07 08:48:18;;;;;;;12.98;8.45;;;;;;;4.80;59.79;95713.38;5086820;28;20035;-82
2022/01/07 08:50:44;;;;;;;12.65;8.40;;;;;;;4.89;59.27;95711.75;5071406;28;20027;-82
2022/01/07 08:53:10;;;;;;;12.57;8.90;;;;;;;4.88;60.52;95704.75;5086507;28;20021;-81
2022/01/07 08:55:36;;;;;;;11.13;7.35;;;;;;;4.88;59.24;95703.91;5088148;28;20031;-84
2022/01/07 08:58:01;;;;;;;15.82;8.32;;;;;;;4.85;59.90;95698.88;5087120;28;20020;-81
2022/01/07 09:00:27;;;;;;;13.63;8.75;;;;;;;5.01;59.13;95688.56;5087803;28;20020;-81
2022/01/07 09:02:52;;;;;;;13.57;7.82;;;;;;;4.96;59.34;95690.78;5088821;28;20021;-82
2022/01/07 09:05:17;;;;;;;12.15;7.53;;;;;;;5.00;58.80;95691.38;5087847;28;20024;-81
2022/01/07 09:07:43;;;;;;;13.20;7.88;;;;;;;5.00;59.19;95686.88;5071028;28;20482;-82
2022/01/07 09:10:08;;;;;;;13.07;8.27;;;;;;;5.02;59.90;95684.06;5086090;28;20430;-80
2022/01/07 09:12:34;;;;;;;11.25;8.15;;;;;;;4.98;59.10;95683.50;5088228;28;20048;-82
2022/01/07 09:14:59;;;;;;;13.52;8.40;;;;;;;4.76;59.38;95676.56;5087485;28;20031;-81
2022/01/07 09:17:26;;;;;;;15.00;8.30;;;;;;;4.76;60.43;95682.75;5088849;28;20085;-82
2022/01/07 09:19:52;;;;;;;11.30;8.45;;;;;;;4.82;59.32;95684.84;5087686;28;20110;-82
2022/01/07 09:22:17;;;;;;;13.20;8.50;;;;;;;4.82;59.62;95671.56;5088359;28;20039;-82
2022/01/07 09:24:42;;;;;;;17.00;8.45;;;;;;;4.78;59.64;95664.84;5088839;28;20024;-81
2022/01/07 09:27:08;;;;;;;13.57;8.75;;;;;;;4.76;59.33;95674.78;5087265;28;20024;-82
2022/01/07 09:29:33;;;;;;;14.32;8.65;;;;;;;4.73;60.28;95674.19;5088829;28;20444;-81
2022/01/07 09:31:59;;;;;;;12.55;8.23;;;;;;;4.72;60.09;95670.72;5068422;28;20466;-82
2022/01/07 09:34:24;;;;;;;14.30;8.50;;;;;;;4.73;59.99;95669.72;5087836;28;20024;-82
2022/01/07 09:36:49;;;;;;;15.05;8.75;;;;;;;4.74;60.38;95660.78;5086926;28;20036;-82
2022/01/07 09:39:15;;;;;;;14.18;8.43;;;;;;;4.81;60.25;95666.38;5087267;28;20024;-82
2022/01/07 09:41:40;;;;;;;10.23;7.85;;;;;;;4.96;60.11;95669.53;5088047;28;20486;-82
2022/01/07 09:44:10;;;;;;;13.30;8.05;;;;;;;4.97;59.79;95663.22;5087421;28;20470;-81
2022/01/07 09:46:35;;;;;;;13.35;7.15;;;;;;;5.07;59.95;95658.78;5088429;28;20555;-81
2022/01/07 09:49:01;;;;;;;15.60;7.60;;;;;;;5.18;59.12;95657.81;5086449;28;20031;-81
2022/01/07 09:51:27;;;;;;;9.63;6.55;;;;;;;5.17;59.06;95655.28;5088683;28;20479;-82
2022/01/07 09:53:52;;;;;;;12.27;7.55;;;;;;;5.27;58.72;95642.81;5086185;28;20024;-82
2022/01/07 09:56:19;;;;;;;11.52;7.55;;;;;;;5.40;57.86;95641.72;5086920;28;20028;-81
2022/01/07 09:58:45;;;;;;;10.00;6.15;;;;;;;5.48;58.43;95639.19;5087123;28;20023;-82
2022/01/07 10:01:13;;;;;;;10.38;6.65;;;;;;;5.49;57.86;95645.34;5069604;28;20028;-81
2022/01/07 10:03:42;;;;;;;12.13;7.63;;;;;;;5.52;57.54;95642.41;5087827;28;20028;-83
2022/01/07 10:06:20;;;;;;;11.32;7.07;;;;;;;5.53;57.94;95646.78;5086561;28;20020;-81
2022/01/07 10:08:57;;;;;;;9.60;7.00;;;;;;;5.59;56.90;95645.38;5088301;28;20024;-82
2022/01/07 10:11:22;;;;;;;14.13;6.28;;;;;;;5.56;56.82;95639.34;5086176;28;20106;-84
2022/01/07 10:13:50;;;;;;;11.95;7.82;;;;;;;5.57;56.83;95638.38;5087845;28;20490;-81
2022/01/07 10:16:22;;;;;;;9.82;6.82;;;;;;;5.56;56.69;95646.50;5068414;28;20103;-82
2022/01/07 10:18:48;;;;;;;9.68;6.70;;;;;;;5.60;57.18;95639.06;5086872;28;20533;-82
2022/01/07 10:21:15;;;;;;;10.13;6.78;;;;;;;5.67;57.12;95634.84;5086348;28;20066;-81
2022/01/07 10:23:41;;;;;;;12.02;7.00;;;;;;;5.75;55.89;95642.97;5068057;28;20526;-80
2022/01/07 10:26:17;;;;;;;10.82;6.97;;;;;;;5.75;56.27;95628.81;5086305;28;20110;-80
2022/01/07 10:28:43;;;;;;;10.38;7.50;;;;;;;5.78;55.88;95621.41;5086584;28;20024;-81
2022/01/07 10:31:09;;;;;;;11.02;6.90;;;;;;;5.78;55.86;95626.72;5087389;28;20059;-82
2022/01/07 10:33:41;;;;;;;8.32;5.95;;;;;;;5.88;55.50;95621.38;5086913;28;20173;-81
2022/01/07 10:36:06;;;;;;;10.38;6.18;;;;;;;5.83;55.16;95618.31;5084972;28;20024;-81
2022/01/07 10:38:33;;;;;;;10.50;6.20;;;;;;;5.84;55.65;95614.66;5087884;28;20024;-81
2022/01/07 10:41:01;;;;;;;10.25;6.38;;;;;;;5.91;55.72;95607.78;5084633;28;20406;-81
2022/01/07 10:43:33;;;;;;;10.23;6.35;;;;;;;6.00;55.71;95600.75;5087818;28;20021;-82
2022/01/07 10:46:19;;;;;;;10.20;6.28;;;;;;;6.11;55.64;95601.59;5085384;28;20450;-81
2022/01/07 10:48:50;;;;;;;15.35;6.80;;;;;;;6.17;54.95;95599.19;5087089;28;20032;-80
2022/01/07 10:51:26;;;;;;;9.23;6.75;;;;;;;6.23;55.60;95594.25;5086832;28;20031;-81
2022/01/07 10:54:05;;;;;;;9.75;6.35;;;;;;;6.30;54.91;95598.84;5085559;28;20032;-80
2022/01/07 10:56:51;;;;;;;12.60;6.60;;;;;;;6.32;54.00;95595.22;5086184;28;20028;-80
2022/01/07 10:59:19;;;;;;;10.15;7.05;;;;;;;6.38;54.50;95597.28;5069091;28;20084;-81
2022/01/07 11:01:46;;;;;;;12.85;7.10;;;;;;;6.45;53.89;95592.22;5085553;28;20555;-81
2022/01/07 11:04:19;;;;;;;10.82;6.70;;;;;;;6.52;53.72;95594.16;5087077;28;20067;-81
2022/01/07 11:06:45;;;;;;;8.80;5.82;;;;;;;6.42;53.38;95590.69;5085898;28;20107;-81
2022/01/07 11:09:12;;;;;;;8.88;6.28;;;;;;;6.42;53.13;95586.19;5086200;28;20020;-81
2022/01/07 11:12:04;;;;;;;9.73;6.57;;;;;;;6.37;53.03;95582.28;5084672;28;20529;-81
2022/01/07 11:14:31;;;;;;;11.90;6.80;;;;;;;6.38;53.20;95578.66;5086462;28;20502;-80
2022/01/07 11:16:58;;;;;;;11.80;7.15;;;;;;;6.45;53.05;95577.06;5086250;28;20028;-82
2022/01/07 11:19:33;;;;;;;13.73;7.60;;;;;;;6.42;53.54;95569.38;5084527;28;20031;-81
2022/01/07 11:21:59;;;;;;;11.35;6.63;;;;;;;6.42;53.38;95575.53;5088483;28;20024;-82
2022/01/07 11:24:33;;;;;;;10.32;6.75;;;;;;;6.41;53.35;95579.19;5085093;28;20024;-81
2022/01/07 11:27:22;;;;;;;10.15;7.00;;;;;;;6.42;53.70;95580.03;5086967;28;20085;-81
2022/01/07 11:29:48;;;;;;;19.42;10.60;;;;;;;6.41;53.90;95579.19;5085785;28;20028;-82
2022/01/07 11:32:25;;;;;;;12.20;7.95;;;;;;;6.55;53.32;95580.53;5086409;28;20031;-81
2022/01/07 11:34:54;;;;;;;15.85;8.57;;;;;;;6.46;53.68;95577.91;5086783;28;20517;-83
2022/01/07 11:37:46;;;;;;;9.68;7.10;;;;;;;6.35;52.98;95573.63;5084945;28;20028;-82
2022/01/07 11:40:32;;;;;;;12.52;6.85;;;;;;;6.34;53.57;95569.25;5083752;28;20101;-81
2022/01/07 11:43:05;;;;;;;10.23;6.28;;;;;;;6.35;53.63;95569.09;5085068;28;20098;-81
2022/01/07 11:45:31;;;;;;;;;;;;;;;6.39;53.37;95565.19;5084799;28;20031;-83